createdAt,value
2018-12-10T00:01:39.707Z,2.33
2018-12-10T00:04:09.842Z,3.77
2018-12-10T00:06:40.028Z,2.83
2018-12-10T00:09:10.145Z,2.33
2018-12-10T00:11:40.285Z,2.10
2018-12-10T00:14:10.393Z,1.67
2018-12-10T00:16:40.538Z,1.90
2018-12-10T00:19:10.701Z,2.17
2018-12-10T00:21:40.846Z,2.77
2018-12-10T00:24:10.969Z,2.53
2018-12-10T00:26:41.244Z,2.40
2018-12-10T00:29:11.664Z,4.17
2018-12-10T00:31:41.802Z,2.90
2018-12-10T00:34:12.155Z,3.70
2018-12-10T00:36:42.302Z,2.50
2018-12-10T00:39:12.414Z,2.00
2018-12-10T00:41:42.565Z,1.97
2018-12-10T00:44:12.749Z,1.90
2018-12-10T00:46:42.888Z,2.10
2018-12-10T00:49:12.997Z,2.03
2018-12-10T00:51:43.153Z,1.57
2018-12-10T00:54:13.269Z,1.30
2018-12-10T00:56:43.416Z,1.67
2018-12-10T00:59:13.533Z,1.93
2018-12-10T01:01:43.678Z,2.70
2018-12-10T01:04:13.781Z,2.23
2018-12-10T01:06:43.929Z,1.70
2018-12-10T01:09:14.069Z,1.70
2018-12-10T01:11:44.208Z,2.03
2018-12-10T01:14:14.369Z,2.77
2018-12-10T01:16:44.512Z,1.90
2018-12-10T01:19:14.674Z,1.60
2018-12-10T01:21:44.794Z,1.90
2018-12-10T01:24:14.942Z,1.50
2018-12-10T01:26:45.081Z,1.97
2018-12-10T01:29:15.193Z,1.37
2018-12-10T01:31:45.355Z,1.33
2018-12-10T01:34:15.466Z,2.10
2018-12-10T01:36:45.610Z,1.80
2018-12-10T01:39:15.724Z,2.43
2018-12-10T01:41:45.856Z,2.23
2018-12-10T01:44:16.001Z,1.73
2018-12-10T01:46:46.121Z,1.40
2018-12-10T01:49:16.264Z,1.37
2018-12-10T01:51:46.377Z,1.57
2018-12-10T01:54:16.523Z,1.67
2018-12-10T01:56:46.642Z,1.83
2018-12-10T01:59:16.793Z,1.93
2018-12-10T02:01:46.905Z,1.37
2018-12-10T02:04:17.059Z,1.40
2018-12-10T02:06:47.164Z,1.60
2018-12-10T02:09:17.318Z,1.33
2018-12-10T02:11:47.442Z,1.30
2018-12-10T02:14:17.670Z,2.23
2018-12-10T02:16:47.801Z,1.93
2018-12-10T02:19:17.941Z,1.90
2018-12-10T02:21:48.058Z,1.97
2018-12-10T02:24:18.274Z,1.67
2018-12-10T02:26:48.649Z,1.70
2018-12-10T02:29:18.791Z,1.30
2018-12-10T02:31:48.914Z,2.00
2018-12-10T02:34:19.059Z,1.67
2018-12-10T02:36:49.205Z,1.73
2018-12-10T02:39:19.334Z,1.30
2018-12-10T02:41:49.657Z,2.10
2018-12-10T02:44:19.779Z,1.40
2018-12-10T02:46:50.147Z,1.20
2018-12-10T02:49:20.281Z,1.53
2018-12-10T02:51:50.393Z,1.83
2018-12-10T02:54:20.553Z,2.10
2018-12-10T02:56:50.680Z,1.50
2018-12-10T02:59:21.045Z,1.30
2018-12-10T03:01:51.347Z,1.83
2018-12-10T03:04:21.683Z,1.13
2018-12-10T03:06:51.824Z,1.53
2018-12-10T03:09:22.021Z,1.40
2018-12-10T03:11:52.148Z,1.43
2018-12-10T03:14:22.549Z,1.33
2018-12-10T03:16:52.664Z,0.93
2018-12-10T03:19:22.818Z,1.43
2018-12-10T03:21:52.945Z,1.30
2018-12-10T03:24:23.090Z,1.77
2018-12-10T03:26:53.199Z,1.23
2018-12-10T03:29:23.527Z,1.10
2018-12-10T03:31:53.712Z,1.10
2018-12-10T03:34:23.817Z,1.33
2018-12-10T03:36:54.161Z,1.70
2018-12-10T03:39:24.554Z,1.23
2018-12-10T03:41:54.734Z,1.30
2018-12-10T03:44:24.969Z,1.33
2018-12-10T03:46:55.265Z,1.23
2018-12-10T03:49:25.583Z,1.40
2018-12-10T03:51:55.713Z,1.10
2018-12-10T03:54:25.825Z,0.80
2018-12-10T03:56:55.970Z,1.50
2018-12-10T03:59:26.083Z,1.43
2018-12-10T04:01:56.481Z,1.10
2018-12-10T04:04:26.594Z,1.10
2018-12-10T04:06:56.751Z,1.20
2018-12-10T04:09:27.000Z,1.63
2018-12-10T04:11:57.469Z,1.33
2018-12-10T04:14:27.650Z,0.83
2018-12-10T04:16:57.783Z,0.60
2018-12-10T04:19:28.138Z,1.00
2018-12-10T04:21:58.469Z,1.07
2018-12-10T04:24:28.605Z,1.37
2018-12-10T04:26:58.985Z,0.90
2018-12-10T04:29:29.338Z,0.90
2018-12-10T04:31:59.482Z,1.23
2018-12-10T04:34:29.599Z,1.50
2018-12-10T04:36:59.806Z,1.27
2018-12-10T04:39:30.167Z,1.17
2018-12-10T04:42:00.481Z,1.03
2018-12-10T04:44:30.606Z,1.27
2018-12-10T04:47:00.805Z,1.53
2018-12-10T04:49:30.926Z,1.57
2018-12-10T04:52:01.108Z,1.50
2018-12-10T04:54:31.277Z,1.27
2018-12-10T04:57:01.421Z,1.70
2018-12-10T04:59:31.557Z,2.10
2018-12-10T05:02:01.694Z,2.00
2018-12-10T05:04:32.040Z,1.50
2018-12-10T05:07:02.184Z,2.13
2018-12-10T05:09:32.541Z,1.63
2018-12-10T05:12:02.964Z,1.90
2018-12-10T05:14:33.185Z,2.07
2018-12-10T05:17:03.479Z,1.87
2018-12-10T05:19:33.585Z,2.00
2018-12-10T05:22:03.729Z,1.83
2018-12-10T05:24:33.866Z,2.20
2018-12-10T05:27:04.001Z,2.60
2018-12-10T05:29:37.190Z,2.57
2018-12-10T05:32:07.373Z,2.53
2018-12-10T05:34:37.488Z,2.40
2018-12-10T05:37:07.637Z,2.60
2018-12-10T05:39:38.624Z,2.53
2018-12-10T05:42:09.059Z,2.53
2018-12-10T05:44:39.170Z,2.47
2018-12-10T05:47:09.317Z,2.73
2018-12-10T05:49:39.434Z,2.40
2018-12-10T05:52:09.605Z,3.00
2018-12-10T05:54:39.717Z,3.00
2018-12-10T05:57:09.849Z,3.10
2018-12-10T05:59:39.966Z,2.97
2018-12-10T06:02:10.219Z,2.90
2018-12-10T06:04:40.373Z,2.83
2018-12-10T06:07:10.565Z,3.30
2018-12-10T06:09:42.493Z,3.27
2018-12-10T06:12:12.648Z,3.40
2018-12-10T06:14:42.790Z,3.50
2018-12-10T06:17:12.933Z,3.03
2018-12-10T06:19:43.047Z,2.90
2018-12-10T06:22:13.189Z,3.10
2018-12-10T06:24:43.348Z,3.13
2018-12-10T06:27:13.473Z,3.37
2018-12-10T06:29:43.628Z,3.20
2018-12-10T06:32:13.741Z,3.33
2018-12-10T06:34:43.877Z,3.67
2018-12-10T06:37:14.003Z,3.73
2018-12-10T06:39:44.148Z,3.80
2018-12-10T06:42:14.263Z,3.47
2018-12-10T06:44:44.406Z,4.07
2018-12-10T06:47:14.564Z,3.90
2018-12-10T06:49:44.714Z,4.70
2018-12-10T06:52:14.832Z,4.30
2018-12-10T06:54:44.962Z,4.73
2018-12-10T06:57:15.086Z,5.73
2018-12-10T06:59:45.233Z,5.23
2018-12-10T07:02:15.358Z,5.00
2018-12-10T07:04:45.493Z,5.47
2018-12-10T07:07:15.609Z,5.20
2018-12-10T07:09:45.750Z,4.53
2018-12-10T07:12:15.861Z,5.33
2018-12-10T07:14:46.006Z,5.33
2018-12-10T07:17:16.113Z,5.03
2018-12-10T07:19:46.252Z,4.97
2018-12-10T07:22:16.361Z,4.97
2018-12-10T07:24:46.519Z,5.30
2018-12-10T07:27:16.638Z,4.77
2018-12-10T07:29:46.792Z,5.00
2018-12-10T07:32:17.129Z,4.93
2018-12-10T07:34:47.281Z,4.77
2018-12-10T07:37:17.672Z,4.60
2018-12-10T07:39:47.809Z,4.83
2018-12-10T07:42:17.934Z,5.30
2018-12-10T07:44:48.125Z,4.63
2018-12-10T07:47:18.289Z,4.57
2018-12-10T07:49:48.458Z,4.33
2018-12-10T07:52:18.585Z,3.83
2018-12-10T07:54:48.730Z,4.13
2018-12-10T07:57:19.041Z,4.00
2018-12-10T07:59:49.525Z,3.90
2018-12-10T08:02:19.688Z,3.40
2018-12-10T08:04:49.866Z,3.67
2018-12-10T08:07:20.211Z,3.10
2018-12-10T08:09:50.378Z,3.63
2018-12-10T08:12:20.885Z,2.97
2018-12-10T08:14:51.022Z,2.90
2018-12-10T08:17:21.152Z,2.50
2018-12-10T08:19:51.304Z,2.23
2018-12-10T08:22:21.435Z,2.27
2018-12-10T08:24:51.587Z,1.93
2018-12-10T08:27:21.689Z,2.10
2018-12-10T08:29:51.837Z,1.83
2018-12-10T08:32:21.983Z,2.10
2018-12-10T08:34:52.142Z,2.07
2018-12-10T08:37:22.261Z,2.37
2018-12-10T08:39:52.414Z,2.17
2018-12-10T08:42:22.755Z,2.40
2018-12-10T08:44:53.691Z,2.10
2018-12-10T08:47:24.138Z,2.30
2018-12-10T08:49:54.295Z,2.57
2018-12-10T08:52:24.410Z,2.53
2018-12-10T08:54:54.551Z,2.00
2018-12-10T08:57:24.691Z,2.43
2018-12-10T08:59:54.825Z,1.90
2018-12-10T09:02:24.993Z,1.87
2018-12-10T09:04:55.368Z,2.00
2018-12-10T09:07:25.489Z,1.83
2018-12-10T09:09:55.633Z,3.30
2018-12-10T09:12:25.778Z,2.20
2018-12-10T09:14:55.929Z,2.23
2018-12-10T09:17:26.050Z,2.53
2018-12-10T09:19:56.197Z,3.43
2018-12-10T09:22:26.317Z,2.83
2018-12-10T09:24:56.449Z,2.80
2018-12-10T09:27:26.611Z,3.27
2018-12-10T09:29:56.758Z,3.50
2018-12-10T09:32:26.869Z,4.40
2018-12-10T09:34:57.028Z,4.40
2018-12-10T09:37:27.147Z,4.83
2018-12-10T09:39:58.074Z,4.93
2018-12-10T09:42:28.194Z,5.07
2018-12-10T09:44:58.505Z,5.90
2018-12-10T09:47:28.650Z,5.73
2018-12-10T09:49:58.763Z,5.70
2018-12-10T09:52:28.914Z,6.87
2018-12-10T09:54:59.033Z,7.20
2018-12-10T09:57:29.226Z,6.37
2018-12-10T09:59:59.466Z,7.00
2018-12-10T10:02:29.622Z,6.70
2018-12-10T10:04:59.741Z,7.20
2018-12-10T10:07:29.885Z,7.40
2018-12-10T10:10:00.000Z,8.23
2018-12-10T10:12:30.195Z,7.30
2018-12-10T10:15:00.313Z,7.70
2018-12-10T10:17:30.527Z,7.13
2018-12-10T10:20:00.851Z,6.70
2018-12-10T10:22:31.005Z,6.30
2018-12-10T10:25:01.355Z,6.90
2018-12-10T10:27:31.501Z,6.10
2018-12-10T10:30:01.652Z,5.60
2018-12-10T10:32:31.790Z,5.17
2018-12-10T10:35:01.910Z,4.60
2018-12-10T10:37:32.057Z,4.10
2018-12-10T10:40:02.197Z,3.33
2018-12-10T10:42:32.334Z,3.27
2018-12-10T10:45:02.520Z,2.67
2018-12-10T10:47:32.658Z,2.93
2018-12-10T10:50:02.833Z,2.70
2018-12-10T10:52:33.417Z,2.60
2018-12-10T10:55:04.365Z,2.63
2018-12-10T10:57:34.498Z,2.57
2018-12-10T11:00:09.312Z,2.33
2018-12-10T11:02:44.204Z,2.50
2018-12-10T11:05:14.582Z,2.90
2018-12-10T11:07:44.692Z,3.10
2018-12-10T11:10:14.838Z,3.20
2018-12-10T11:12:44.948Z,3.47
2018-12-10T11:15:15.092Z,3.10
2018-12-10T11:17:48.307Z,3.30
2018-12-10T11:20:18.490Z,3.07
2018-12-10T11:22:48.611Z,3.00
2018-12-10T11:25:18.742Z,2.40
2018-12-10T11:27:49.087Z,2.90
2018-12-10T11:30:19.272Z,3.67
2018-12-10T11:32:49.393Z,4.33
2018-12-10T11:35:19.532Z,3.97
2018-12-10T11:37:49.694Z,4.50
2018-12-10T11:40:19.842Z,5.70
2018-12-10T11:42:49.958Z,4.93
2018-12-10T11:45:20.102Z,5.20
2018-12-10T11:47:50.221Z,5.70
2018-12-10T11:50:20.711Z,6.17
2018-12-10T11:52:51.204Z,5.60
2018-12-10T11:55:21.413Z,5.70
2018-12-10T11:57:51.539Z,5.53
2018-12-10T12:00:21.685Z,5.17
2018-12-10T12:02:51.790Z,5.23
2018-12-10T12:05:21.937Z,4.80
2018-12-10T12:07:52.049Z,4.60
2018-12-10T12:10:22.243Z,4.43
2018-12-10T12:12:52.354Z,4.80
2018-12-10T12:15:22.513Z,4.57
2018-12-10T12:17:52.671Z,4.60
2018-12-10T12:20:22.785Z,4.20
2018-12-10T12:22:52.981Z,4.10
2018-12-10T12:25:23.158Z,4.50
2018-12-10T12:27:53.394Z,4.43
2018-12-10T12:30:23.515Z,4.83
2018-12-10T12:32:53.661Z,4.70
2018-12-10T12:35:23.784Z,4.63
2018-12-10T12:37:53.925Z,4.30
2018-12-10T12:40:24.065Z,4.47
2018-12-10T12:42:54.222Z,4.73
2018-12-10T12:45:24.364Z,4.60
2018-12-10T12:47:54.576Z,4.73
2018-12-10T12:50:24.733Z,4.87
2018-12-10T12:52:54.858Z,3.60
2018-12-10T12:55:25.011Z,3.80
2018-12-10T12:57:55.329Z,3.53
2018-12-10T13:00:27.189Z,4.33
2018-12-10T13:02:57.644Z,3.80
2018-12-10T13:05:27.957Z,2.80
2018-12-10T13:07:58.161Z,3.20
2018-12-10T13:10:28.273Z,2.27
2018-12-10T13:12:58.469Z,2.93
2018-12-10T13:15:28.568Z,3.07
2018-12-10T13:17:58.712Z,2.87
2018-12-10T13:20:28.837Z,3.57
2018-12-10T13:22:59.022Z,3.00
2018-12-10T13:25:29.481Z,2.53
2018-12-10T13:27:59.643Z,2.80
2018-12-10T13:30:29.848Z,2.47
2018-12-10T13:33:00.229Z,2.77
2018-12-10T13:35:30.389Z,2.80
2018-12-10T13:38:00.515Z,2.20
2018-12-10T13:40:30.660Z,2.90
2018-12-10T13:43:00.771Z,2.67
2018-12-10T13:45:31.155Z,3.00
2018-12-10T13:48:01.662Z,3.20
2018-12-10T13:50:31.805Z,2.97
2018-12-10T13:53:01.944Z,3.93
2018-12-10T13:55:32.349Z,3.27
2018-12-10T13:58:02.747Z,3.50
2018-12-10T14:00:33.202Z,3.10
2018-12-10T14:03:07.470Z,3.43
2018-12-10T14:05:37.797Z,2.80
2018-12-10T14:08:08.030Z,3.27
2018-12-10T14:10:38.449Z,2.90
2018-12-10T14:13:08.586Z,3.10
2018-12-10T14:15:38.717Z,2.57
2018-12-10T14:18:08.857Z,3.23
2018-12-10T14:20:39.012Z,2.67
2018-12-10T14:23:09.172Z,2.50
2018-12-10T14:25:39.319Z,3.10
2018-12-10T14:28:09.522Z,2.83
2018-12-10T14:30:39.719Z,2.27
2018-12-10T14:33:09.869Z,2.87
2018-12-10T14:35:39.988Z,2.27
2018-12-10T14:38:10.140Z,2.10
2018-12-10T14:40:40.255Z,2.30
2018-12-10T14:43:10.743Z,1.90
2018-12-10T14:45:40.809Z,2.00
2018-12-10T14:48:10.948Z,1.40
2018-12-10T14:50:41.069Z,1.30
2018-12-10T14:53:11.209Z,1.77
2018-12-10T14:55:41.353Z,1.57
2018-12-10T14:58:11.534Z,1.63
2018-12-10T15:00:41.928Z,1.30
2018-12-10T15:03:12.047Z,2.10
2018-12-10T15:05:42.194Z,1.57
2018-12-10T15:08:12.338Z,2.33
2018-12-10T15:10:42.455Z,1.57
2018-12-10T15:13:12.589Z,1.53
2018-12-10T15:15:42.732Z,1.60
2018-12-10T15:18:12.846Z,1.50
2018-12-10T15:20:43.223Z,1.23
2018-12-10T15:23:13.341Z,1.30
2018-12-10T15:25:43.494Z,1.27
2018-12-10T15:28:13.629Z,1.70
2018-12-10T15:30:43.740Z,1.50
2018-12-10T15:33:13.948Z,1.93
2018-12-10T15:35:44.058Z,1.57
2018-12-10T15:38:14.237Z,2.00
2018-12-10T15:40:44.418Z,1.73
2018-12-10T15:43:14.559Z,1.63
2018-12-10T15:45:44.705Z,2.00
2018-12-10T15:48:15.542Z,1.80
2018-12-10T15:50:45.997Z,1.73
2018-12-10T15:53:16.105Z,1.73
2018-12-10T15:55:46.302Z,1.60
2018-12-10T15:58:16.416Z,2.10
2018-12-10T16:00:46.745Z,1.83
2018-12-10T16:03:16.853Z,1.67
2018-12-10T16:05:46.993Z,2.07
2018-12-10T16:08:17.424Z,1.50
2018-12-10T16:10:47.602Z,1.87
2018-12-10T16:13:17.717Z,1.77
2018-12-10T16:15:47.924Z,1.57
2018-12-10T16:18:18.209Z,1.87
2018-12-10T16:20:48.406Z,1.63
2018-12-10T16:23:18.519Z,1.70
2018-12-10T16:25:48.669Z,1.67
2018-12-10T16:28:18.796Z,1.77
2018-12-10T16:30:49.273Z,1.50
2018-12-10T16:33:19.443Z,1.60
2018-12-10T16:35:50.130Z,2.40
2018-12-10T16:38:20.315Z,1.87
2018-12-10T16:40:50.689Z,2.80
2018-12-10T16:43:20.862Z,1.40
2018-12-10T16:45:51.232Z,1.47
2018-12-10T16:48:21.391Z,1.20
2018-12-10T16:50:51.573Z,1.30
2018-12-10T16:53:21.685Z,1.10
2018-12-10T16:55:51.834Z,1.17
2018-12-10T16:58:21.937Z,0.97
2018-12-10T17:00:52.095Z,1.20
2018-12-10T17:03:22.208Z,1.33
2018-12-10T17:05:52.569Z,2.43
2018-12-10T17:08:22.706Z,1.17
2018-12-10T17:10:52.840Z,1.10
2018-12-10T17:13:22.963Z,1.60
2018-12-10T17:15:53.349Z,2.80
2018-12-10T17:18:23.529Z,1.47
2018-12-10T17:20:53.753Z,1.80
2018-12-10T17:23:23.901Z,1.70
2018-12-10T17:25:54.059Z,2.50
2018-12-10T17:28:24.174Z,2.40
2018-12-10T17:30:54.321Z,2.70
2018-12-10T17:33:24.438Z,3.20
2018-12-10T17:35:54.600Z,3.23
2018-12-10T17:38:24.712Z,2.93
2018-12-10T17:40:55.122Z,3.47
2018-12-10T17:43:25.233Z,3.60
2018-12-10T17:45:55.469Z,3.17
2018-12-10T17:48:25.606Z,3.10
2018-12-10T17:50:55.751Z,3.53
2018-12-10T17:53:25.889Z,3.13
2018-12-10T17:55:56.039Z,3.10
2018-12-10T17:58:26.193Z,4.17
2018-12-10T18:00:56.310Z,3.50
2018-12-10T18:03:26.458Z,3.70
2018-12-10T18:05:56.574Z,3.97
2018-12-10T18:08:27.165Z,3.10
2018-12-10T18:10:57.273Z,3.60
2018-12-10T18:13:27.416Z,3.53
2018-12-10T18:15:57.525Z,3.30
2018-12-10T18:18:27.662Z,3.17
2018-12-10T18:20:57.781Z,3.50
2018-12-10T18:23:27.913Z,3.40
2018-12-10T18:25:58.028Z,3.20
2018-12-10T18:28:28.170Z,3.70
2018-12-10T18:30:58.538Z,3.10
2018-12-10T18:33:29.332Z,2.77
2018-12-10T18:35:59.692Z,3.37
2018-12-10T18:38:29.832Z,3.63
2018-12-10T18:40:59.989Z,2.70
2018-12-10T18:43:30.105Z,3.30
2018-12-10T18:46:00.258Z,3.77
2018-12-10T18:48:30.386Z,2.93
2018-12-10T18:51:00.544Z,2.50
2018-12-10T18:53:30.656Z,2.30
2018-12-10T18:56:00.865Z,2.57
2018-12-10T18:58:30.976Z,2.70
2018-12-10T19:01:01.113Z,2.20
2018-12-10T19:03:31.229Z,3.13
2018-12-10T19:06:01.369Z,2.50
2018-12-10T19:08:31.490Z,2.50
2018-12-10T19:11:01.630Z,2.43
2018-12-10T19:13:31.764Z,2.50
2018-12-10T19:16:02.132Z,3.10
2018-12-10T19:18:32.274Z,2.20
2018-12-10T19:21:02.413Z,2.47
2018-12-10T19:23:32.554Z,3.27
2018-12-10T19:26:02.665Z,2.43
2018-12-10T19:28:32.814Z,2.80
2018-12-10T19:31:02.921Z,2.43
2018-12-10T19:33:33.052Z,2.30
2018-12-10T19:36:03.472Z,2.90
2018-12-10T19:38:33.827Z,2.53
2018-12-10T19:41:04.187Z,2.30
2018-12-10T19:43:34.305Z,2.20
2018-12-10T19:46:04.727Z,2.80
2018-12-10T19:48:35.530Z,2.40
2018-12-10T19:51:05.957Z,2.33
2018-12-10T19:53:36.306Z,2.83
2018-12-10T19:56:06.532Z,2.60
2018-12-10T19:58:36.915Z,2.63
2018-12-10T20:01:07.089Z,3.10
2018-12-10T20:03:38.258Z,2.90
2018-12-10T20:06:15.358Z,2.90
2018-12-10T20:08:45.705Z,2.40
2018-12-10T20:11:15.840Z,3.37
2018-12-10T20:13:45.961Z,2.90
2018-12-10T20:16:16.143Z,2.97
2018-12-10T20:18:46.281Z,3.27
2018-12-10T20:21:16.400Z,3.07
2018-12-10T20:23:46.549Z,3.60
2018-12-10T20:26:16.697Z,3.30
2018-12-10T20:28:47.059Z,3.50
2018-12-10T20:31:17.444Z,3.10
2018-12-10T20:33:47.829Z,3.00
2018-12-10T20:36:18.164Z,3.47
2018-12-10T20:38:48.583Z,3.10
2018-12-10T20:41:18.699Z,3.23
2018-12-10T20:43:48.852Z,3.20
2018-12-10T20:46:18.964Z,3.00
2018-12-10T20:48:49.142Z,3.17
2018-12-10T20:51:19.277Z,3.10
2018-12-10T20:53:49.646Z,3.87
2018-12-10T20:56:19.766Z,3.77
2018-12-10T20:58:49.915Z,3.90
2018-12-10T21:01:20.066Z,4.10
2018-12-10T21:03:50.440Z,3.37
2018-12-10T21:06:26.045Z,3.57
2018-12-10T21:08:56.199Z,3.13
2018-12-10T21:11:26.362Z,3.67
2018-12-10T21:13:56.535Z,4.10
2018-12-10T21:16:26.654Z,3.27
2018-12-10T21:18:56.814Z,4.23
2018-12-10T21:21:26.933Z,4.13
2018-12-10T21:23:57.133Z,3.83
2018-12-10T21:26:27.276Z,3.90
2018-12-10T21:28:57.398Z,3.40
2018-12-10T21:31:27.575Z,3.97
2018-12-10T21:33:57.933Z,3.83
2018-12-10T21:36:28.076Z,3.63
2018-12-10T21:38:58.185Z,3.47
2018-12-10T21:41:28.327Z,3.87
2018-12-10T21:43:58.684Z,3.53
2018-12-10T21:46:28.828Z,3.77
2018-12-10T21:48:58.941Z,4.57
2018-12-10T21:51:29.094Z,3.70
2018-12-10T21:53:59.206Z,3.70
2018-12-10T21:56:29.353Z,4.00
2018-12-10T21:58:59.502Z,3.57
2018-12-10T22:01:29.688Z,3.63
2018-12-10T22:03:59.826Z,4.27
2018-12-10T22:06:30.019Z,3.90
2018-12-10T22:09:00.139Z,3.70
2018-12-10T22:11:30.290Z,2.87
2018-12-10T22:14:00.388Z,3.63
2018-12-10T22:16:30.573Z,3.60
2018-12-10T22:19:00.688Z,3.83
2018-12-10T22:21:30.834Z,3.53
2018-12-10T22:24:00.968Z,3.70
2018-12-10T22:26:31.126Z,3.47
2018-12-10T22:29:01.269Z,3.17
2018-12-10T22:31:31.385Z,3.67
2018-12-10T22:34:01.521Z,3.30
2018-12-10T22:36:31.633Z,2.70
2018-12-10T22:39:01.775Z,3.23
2018-12-10T22:41:32.122Z,2.87
2018-12-10T22:44:02.301Z,3.20
2018-12-10T22:46:32.470Z,3.63
2018-12-10T22:49:02.649Z,3.63
2018-12-10T22:51:32.745Z,3.33
2018-12-10T22:54:02.890Z,3.33
2018-12-10T22:56:33.021Z,2.80
2018-12-10T22:59:03.138Z,3.10
2018-12-10T23:01:33.528Z,3.17
2018-12-10T23:04:03.966Z,3.10
2018-12-10T23:06:34.097Z,3.17
2018-12-10T23:09:06.113Z,3.67
2018-12-10T23:11:36.282Z,3.40
2018-12-10T23:14:06.814Z,3.77
2018-12-10T23:16:36.910Z,3.10
2018-12-10T23:19:07.286Z,3.30
2018-12-10T23:21:37.431Z,3.17
2018-12-10T23:24:07.564Z,3.00
2018-12-10T23:26:37.696Z,3.37
2018-12-10T23:29:07.887Z,2.80
2018-12-10T23:31:38.016Z,3.30
2018-12-10T23:34:08.170Z,2.97
2018-12-10T23:36:38.285Z,3.70
2018-12-10T23:39:08.477Z,2.83
2018-12-10T23:41:38.589Z,3.10
2018-12-10T23:44:10.445Z,3.17
2018-12-10T23:46:40.590Z,2.67
2018-12-10T23:49:10.725Z,3.50
2018-12-10T23:51:40.841Z,3.63
2018-12-10T23:54:10.987Z,2.63
2018-12-10T23:56:41.345Z,3.13
2018-12-10T23:59:11.505Z,3.03
